Time;durP1;ratioP1;P1;durP2;ratioP2;P2;SDS_P1;SDS_P2;PMS_P1;PMS_P2;Temp;Humidity;BMP_temperature;BMP_pressure;BME280_temperature;BME280_humidity;BME280_pressure;Samples;Min_cycle;Max_cycle;Signal;HPM_P1;HPM_P2
2022/06/11 00:02:03;;;;;;;;;;;;;;;22.22;49.22;96309.31;10446123;28;1941;-61
2022/06/11 00:07:04;;;;;;;;;;;;;;;22.22;48.95;96301.38;10472566;28;1958;-61
2022/06/11 00:12:05;;;;;;;;;;;;;;;22.22;48.93;96304.03;10473996;28;1943;-61
2022/06/11 00:17:06;;;;;;;;;;;;;;;22.22;48.92;96301.38;10478077;28;1944;-60
2022/06/11 00:22:06;;;;;;;;;;;;;;;22.21;49.10;96302.47;10473244;28;2008;-55
2022/06/11 00:27:08;;;;;;;;;;;;;;;22.21;48.87;96305.09;10468141;28;1995;-59
2022/06/11 00:32:08;;;;;;;;;;;;;;;22.20;49.07;96295.59;10472973;28;1944;-59
2022/06/11 00:37:10;;;;;;;;;;;;;;;22.20;48.77;96292.94;10485674;28;1973;-60
2022/06/11 00:42:15;;;;;;;;;;;;;;;22.20;48.82;96287.66;10468362;28;1916;-56
2022/06/11 00:47:19;;;;;;;;;;;;;;;22.20;48.86;96290.31;10466954;28;2183;-59
2022/06/11 00:52:32;;;;;;;;;;;;;;;22.20;48.93;96290.31;10461486;28;2065;-54
2022/06/11 00:57:34;;;;;;;;;;;;;;;22.19;49.05;96283.47;10476920;28;2030;-59
2022/06/11 01:02:34;;;;;;;;;;;;;;;22.20;49.01;96281.59;10484845;28;1975;-58
2022/06/11 01:07:47;;;;;;;;;;;;;;;22.18;48.70;96276.59;10484751;28;2018;-59
2022/06/11 01:12:57;;;;;;;;;;;;;;;22.18;48.78;96271.31;10449519;28;2038;-58
2022/06/11 01:18:41;;;;;;;;;;;;;;;22.19;48.84;96275.53;10462644;28;2030;-56
2022/06/11 01:23:42;;;;;;;;;;;;;;;22.18;48.67;96275.78;10451151;28;1981;-60
2022/06/11 01:29:18;;;;;;;;;;;;;;;22.19;48.68;96274.75;10473544;28;1912;-59
2022/06/11 01:34:26;;;;;;;;;;;;;;;22.18;48.99;96276.59;10469153;28;1945;-58
2022/06/11 01:39:42;;;;;;;;;;;;;;;22.17;48.86;96269.72;10462889;28;1910;-55
2022/06/11 01:44:43;;;;;;;;;;;;;;;22.18;48.92;96276.59;10455351;28;2051;-57
2022/06/11 01:49:44;;;;;;;;;;;;;;;22.18;49.12;96270.50;10463531;28;1912;-58
2022/06/11 01:55:00;;;;;;;;;;;;;;;22.17;48.69;96269.72;10472396;28;2225;-58
2022/06/11 02:00:19;;;;;;;;;;;;;;;22.17;48.78;96269.72;10471649;28;1921;-59
2022/06/11 02:05:23;;;;;;;;;;;;;;;22.16;48.63;96268.13;10482540;28;2023;-55
2022/06/11 02:10:26;;;;;;;;;;;;;;;22.16;48.76;96268.13;10449677;28;2018;-58
2022/06/11 02:15:30;;;;;;;;;;;;;;;22.16;48.57;96272.63;10471430;28;2029;-61
2022/06/11 02:20:42;;;;;;;;;;;;;;;22.16;48.51;96265.50;10473885;28;1932;-57
2022/06/11 02:25:45;;;;;;;;;;;;;;;22.14;48.33;96275.53;10474329;28;1897;-58
2022/06/11 02:30:46;;;;;;;;;;;;;;;22.14;48.35;96270.25;10438791;28;2065;-58
2022/06/11 02:35:50;;;;;;;;;;;;;;;22.14;48.15;96278.19;10454601;28;1979;-58
2022/06/11 02:40:58;;;;;;;;;;;;;;;22.15;48.38;96285.06;10464319;28;1987;-56
2022/06/11 02:45:59;;;;;;;;;;;;;;;22.14;48.19;96287.94;10476678;28;1989;-57
2022/06/11 02:50:59;;;;;;;;;;;;;;;22.15;48.11;96289.53;10450138;28;2087;-57
2022/06/11 02:55:59;;;;;;;;;;;;;;;22.14;48.13;96296.66;10486987;28;1910;-59
2022/06/11 03:01:00;;;;;;;;;;;;;;;22.14;48.01;96301.94;10462706;28;1920;-56
2022/06/11 03:06:00;;;;;;;;;;;;;;;22.13;47.98;96303.03;10466492;28;1955;-57
2022/06/11 03:11:01;;;;;;;;;;;;;;;22.14;48.10;96306.44;10466756;28;1903;-60
2022/06/11 03:16:01;;;;;;;;;;;;;;;22.14;48.09;96309.88;10468820;28;2317;-60
2022/06/11 03:21:01;;;;;;;;;;;;;;;22.14;48.13;96315.16;10487023;28;1928;-59
2022/06/11 03:26:02;;;;;;;;;;;;;;;22.14;48.20;96315.16;10464164;28;1465;-61
2022/06/11 03:31:06;;;;;;;;;;;;;;;22.12;48.14;96319.91;10475976;28;1433;-58
2022/06/11 03:36:07;;;;;;;;;;;;;;;22.12;48.17;96317.28;10485499;28;1910;-59
2022/06/11 03:41:07;;;;;;;;;;;;;;;22.13;47.98;96320.72;10480712;28;1958;-58
2022/06/11 03:46:08;;;;;;;;;;;;;;;22.12;47.81;96327.84;10446124;28;2375;-59
2022/06/11 03:51:08;;;;;;;;;;;;;;;22.12;47.86;96332.31;10471538;28;1900;-58
2022/06/11 03:56:08;;;;;;;;;;;;;;;22.12;47.70;96340.22;10460491;28;1914;-60
2022/06/11 04:01:15;;;;;;;;;;;;;;;22.11;47.82;96328.09;10461735;28;1904;-59
2022/06/11 04:06:16;;;;;;;;;;;;;;;22.11;48.10;96343.94;10494476;28;2132;-58
2022/06/11 04:11:16;;;;;;;;;;;;;;;22.11;47.89;96349.22;10459916;28;1699;-58
2022/06/11 04:16:27;;;;;;;;;;;;;;;22.11;48.18;96344.75;10481103;28;1967;-55
2022/06/11 04:21:47;;;;;;;;;;;;;;;22.11;47.84;96354.50;10473402;28;1959;-59
2022/06/11 04:27:08;;;;;;;;;;;;;;;22.11;47.54;96354.50;10474573;28;2011;-57
2022/06/11 04:32:28;;;;;;;;;;;;;;;22.11;47.78;96357.94;10481206;28;1935;-57
2022/06/11 04:37:49;;;;;;;;;;;;;;;22.11;47.53;96359.78;10472433;28;2247;-58
2022/06/11 04:43:09;;;;;;;;;;;;;;;22.10;47.91;96366.91;10472476;28;2011;-59
2022/06/11 04:48:29;;;;;;;;;;;;;;;22.10;47.76;96366.91;10472449;28;1866;-59
2022/06/11 04:53:50;;;;;;;;;;;;;;;22.10;47.78;96366.13;10474892;28;1991;-59
2022/06/11 04:59:10;;;;;;;;;;;;;;;22.10;47.52;96360.84;10474800;28;2011;-61
2022/06/11 05:04:30;;;;;;;;;;;;;;;22.10;47.47;96363.47;10470188;28;1979;-58
2022/06/11 05:09:50;;;;;;;;;;;;;;;22.10;47.50;96366.13;10467512;28;2225;-57
2022/06/11 05:15:10;;;;;;;;;;;;;;;22.10;47.44;96374.03;10475136;28;1964;-57
2022/06/11 05:20:31;;;;;;;;;;;;;;;22.09;47.52;96369.84;10467981;28;1947;-59
2022/06/11 05:25:51;;;;;;;;;;;;;;;22.10;47.46;96374.84;10464544;28;2150;-57
2022/06/11 05:31:11;;;;;;;;;;;;;;;22.10;47.68;96377.47;10464397;28;2047;-58
2022/06/11 05:36:31;;;;;;;;;;;;;;;22.06;47.33;96381.72;10470312;28;1972;-58
2022/06/11 05:41:52;;;;;;;;;;;;;;;22.07;47.50;96385.16;10470812;28;2146;-60
2022/06/11 05:47:12;;;;;;;;;;;;;;;22.04;47.42;96380.38;10469102;28;1916;-56
2022/06/11 05:52:33;;;;;;;;;;;;;;;22.04;47.25;96380.38;10469429;28;1947;-56
2022/06/11 05:57:54;;;;;;;;;;;;;;;22.05;47.64;96385.41;10467700;28;2146;-61
2022/06/11 06:03:14;;;;;;;;;;;;;;;22.04;47.22;96380.38;10471942;28;1849;-61
2022/06/11 06:08:34;;;;;;;;;;;;;;;22.03;47.14;96384.09;10477832;28;1955;-59
2022/06/11 06:13:56;;;;;;;;;;;;;;;22.02;46.96;96377.22;10480032;28;1927;-59
2022/06/11 06:19:16;;;;;;;;;;;;;;;22.03;47.22;96384.88;10466630;28;1906;-56
2022/06/11 06:24:36;;;;;;;;;;;;;;;22.03;46.93;96387.50;10468145;28;1951;-60
2022/06/11 06:29:57;;;;;;;;;;;;;;;22.04;47.39;96389.09;10470352;28;1921;-59
2022/06/11 06:35:17;;;;;;;;;;;;;;;22.02;47.26;96391.22;10473949;28;1941;-59
2022/06/11 06:40:37;;;;;;;;;;;;;;;22.06;47.29;96396.75;10460022;28;2148;-59
2022/06/11 06:45:57;;;;;;;;;;;;;;;22.06;47.61;96402.84;10466559;28;2059;-62
2022/06/11 06:51:18;;;;;;;;;;;;;;;22.05;47.37;96403.88;10473002;28;1873;-57
2022/06/11 06:56:39;;;;;;;;;;;;;;;22.04;47.62;96397.03;10471058;28;1929;-58
2022/06/11 07:01:59;;;;;;;;;;;;;;;22.04;47.38;96390.94;10471887;28;2201;-59
2022/06/11 07:07:19;;;;;;;;;;;;;;;22.02;47.27;96388.59;10466402;28;1995;-56
2022/06/11 07:12:20;;;;;;;;;;;;;;;22.04;47.58;96391.75;10480129;28;1968;-58
2022/06/11 07:17:20;;;;;;;;;;;;;;;22.07;47.44;96393.84;10485658;28;1932;-58
2022/06/11 07:22:25;;;;;;;;;;;;;;;22.02;47.44;96393.06;10472181;28;1975;-58
2022/06/11 07:27:26;;;;;;;;;;;;;;;22.03;47.02;96395.44;10477769;28;1940;-55
2022/06/11 07:32:27;;;;;;;;;;;;;;;22.05;47.53;96389.91;10475696;28;1952;-57
2022/06/11 07:37:27;;;;;;;;;;;;;;;22.07;47.66;96391.19;10478815;28;1957;-57
2022/06/11 07:42:28;;;;;;;;;;;;;;;22.09;47.65;96388.31;10465638;28;1897;-56
2022/06/11 07:52:47;;;;;;;;;;;;;;;21.88;44.57;96384.91;10482908;28;1958;-57
2022/06/11 07:57:48;;;;;;;;;;;;;;;21.89;45.28;96381.22;10456095;28;1999;-57
2022/06/11 08:02:48;;;;;;;;;;;;;;;21.91;45.37;96392.28;10476739;28;2015;-58
2022/06/11 08:07:51;;;;;;;;;;;;;;;21.95;45.46;96389.94;10454431;28;2004;-58
2022/06/11 08:12:51;;;;;;;;;;;;;;;21.95;45.61;96398.63;10464053;28;1970;-54
2022/06/11 08:17:52;;;;;;;;;;;;;;;21.94;45.61;96388.34;10479378;28;2243;-59
2022/06/11 08:22:54;;;;;;;;;;;;;;;21.95;45.11;96388.06;10470578;28;1945;-58
2022/06/11 08:27:54;;;;;;;;;;;;;;;21.92;45.23;96388.59;10471280;28;2054;-59
2022/06/11 08:32:54;;;;;;;;;;;;;;;21.95;45.78;96385.41;10488385;28;1856;-55
2022/06/11 08:37:54;;;;;;;;;;;;;;;21.95;44.82;96395.22;10446464;28;1980;-58
2022/06/11 08:42:58;;;;;;;;;;;;;;;21.95;44.76;96395.97;10461643;28;1822;-55
2022/06/11 08:47:59;;;;;;;;;;;;;;;21.92;44.29;96393.88;10452374;28;1877;-60
2022/06/11 08:53:00;;;;;;;;;;;;;;;21.82;42.84;96399.94;10490534;28;1816;-60
2022/06/11 08:58:19;;;;;;;;;;;;;;;21.84;43.73;96386.50;10442712;28;1968;-62
2022/06/11 09:03:26;;;;;;;;;;;;;;;21.92;44.63;96388.59;10474480;28;1893;-62
2022/06/11 09:08:40;;;;;;;;;;;;;;;21.93;44.68;96387.53;10475942;28;1845;-63
2022/06/11 09:13:44;;;;;;;;;;;;;;;21.92;43.88;96380.69;10487291;28;1883;-63
2022/06/11 09:18:51;;;;;;;;;;;;;;;21.82;42.77;96383.34;10488917;28;1914;-60
2022/06/11 09:23:51;;;;;;;;;;;;;;;21.73;40.59;96380.41;10476091;28;1847;-61
2022/06/11 09:29:01;;;;;;;;;;;;;;;21.78;42.52;96382.25;10476909;28;2126;-60
2022/06/11 09:34:27;;;;;;;;;;;;;;;21.77;40.93;96370.09;10473520;28;1798;-57
2022/06/11 09:39:30;;;;;;;;;;;;;;;21.79;40.68;96370.63;10449214;28;2020;-58
2022/06/11 09:44:34;;;;;;;;;;;;;;;21.88;41.60;96374.34;10473954;28;1785;-59
2022/06/11 09:49:36;;;;;;;;;;;;;;;21.93;42.23;96366.41;10489571;28;1916;-60
2022/06/11 09:54:48;;;;;;;;;;;;;;;21.95;43.07;96371.44;10469670;28;1836;-59
2022/06/11 09:59:50;;;;;;;;;;;;;;;21.96;42.90;96368.53;10459402;28;2003;-59
2022/06/11 10:04:50;;;;;;;;;;;;;;;21.98;42.97;96370.91;10458942;28;1824;-59
2022/06/11 10:09:55;;;;;;;;;;;;;;;21.97;42.90;96369.34;10451428;28;1837;-60
2022/06/11 10:14:58;;;;;;;;;;;;;;;21.97;43.15;96367.47;10478973;28;1892;-60
2022/06/11 10:20:02;;;;;;;;;;;;;;;21.95;42.92;96372.22;10450899;28;1995;-57
2022/06/11 10:25:02;;;;;;;;;;;;;;;21.88;43.09;96374.34;10472791;28;1855;-61
2022/06/11 10:30:07;;;;;;;;;;;;;;;21.96;42.84;96381.72;10471378;28;1904;-59
2022/06/11 10:35:11;;;;;;;;;;;;;;;21.96;43.03;96373.00;10470754;28;1801;-61
2022/06/11 10:40:17;;;;;;;;;;;;;;;21.99;43.05;96378.53;10469517;28;1981;-60
2022/06/11 10:45:17;;;;;;;;;;;;;;;22.05;41.86;96366.91;10487981;28;1898;-59
2022/06/11 10:50:19;;;;;;;;;;;;;;;21.98;42.27;96366.41;10467837;28;1820;-61
2022/06/11 10:55:26;;;;;;;;;;;;;;;21.97;42.40;96367.47;10457376;28;1838;-55
2022/06/11 11:00:28;;;;;;;;;;;;;;;22.02;42.71;96356.09;10457151;28;2164;-58
2022/06/11 11:05:51;;;;;;;;;;;;;;;22.02;42.67;96353.47;10488776;28;1863;-61
2022/06/11 11:10:52;;;;;;;;;;;;;;;22.07;42.62;96356.88;10473136;28;1857;-61
2022/06/11 11:16:22;;;;;;;;;;;;;;;22.06;42.30;96360.59;10467543;28;1885;-61
2022/06/11 11:21:23;;;;;;;;;;;;;;;22.09;42.25;96349.47;10434191;28;1914;-59
2022/06/11 11:26:38;;;;;;;;;;;;;;;22.12;42.96;96346.31;10471889;28;1849;-62
2022/06/11 11:31:40;;;;;;;;;;;;;;;22.09;41.84;96357.41;10457607;28;1852;-61
2022/06/11 11:36:41;;;;;;;;;;;;;;;22.10;42.28;96353.72;10460657;28;1967;-60
2022/06/11 11:42:00;;;;;;;;;;;;;;;22.07;41.99;96346.31;10479367;28;1831;-60
2022/06/11 11:47:02;;;;;;;;;;;;;;;22.03;42.20;96350.56;10480404;28;1994;-63
2022/06/11 11:52:06;;;;;;;;;;;;;;;22.03;40.92;96342.63;10498643;28;1835;-62
2022/06/11 11:57:11;;;;;;;;;;;;;;;22.04;41.13;96333.66;10458490;28;1914;-63
2022/06/11 12:02:12;;;;;;;;;;;;;;;22.09;41.35;96335.50;10480872;28;1870;-61
2022/06/11 12:07:13;;;;;;;;;;;;;;;22.07;41.69;96327.84;10480043;28;1791;-62
2022/06/11 12:12:17;;;;;;;;;;;;;;;22.11;41.46;96333.38;10467338;28;1783;-60
2022/06/11 12:17:38;;;;;;;;;;;;;;;22.08;40.61;96326.00;10482618;28;1902;-63
2022/06/11 12:22:41;;;;;;;;;;;;;;;22.13;40.25;96326.00;10473999;28;1875;-61
2022/06/11 12:27:42;;;;;;;;;;;;;;;22.17;41.31;96333.09;10482272;28;1749;-61
2022/06/11 12:32:43;;;;;;;;;;;;;;;22.20;42.71;96321.19;10480859;28;1793;-62
2022/06/11 12:37:54;;;;;;;;;;;;;;;22.21;42.62;96322.78;10493758;28;1898;-60
2022/06/11 12:43:00;;;;;;;;;;;;;;;22.23;42.95;96315.38;10487217;28;1855;-60
2022/06/11 12:48:13;;;;;;;;;;;;;;;22.25;42.31;96316.69;10477485;28;1763;-61
2022/06/11 12:53:24;;;;;;;;;;;;;;;22.25;42.32;96319.34;10459625;28;1921;-61
2022/06/11 12:58:29;;;;;;;;;;;;;;;22.26;42.99;96322.75;10459850;28;1910;-60
2022/06/11 13:03:48;;;;;;;;;;;;;;;22.25;43.22;96314.06;10440840;28;1804;-61
2022/06/11 13:08:48;;;;;;;;;;;;;;;22.26;43.36;96314.81;10476681;28;1836;-60
2022/06/11 13:13:58;;;;;;;;;;;;;;;22.25;43.47;96321.97;10460479;28;1805;-61
2022/06/11 13:19:27;;;;;;;;;;;;;;;22.23;43.46;96310.09;10442432;28;1910;-63
2022/06/11 13:24:46;;;;;;;;;;;;;;;22.20;43.63;96306.16;10450154;28;1838;-62
2022/06/11 13:30:10;;;;;;;;;;;;;;;22.20;43.60;96298.22;10490194;28;1817;-62
2022/06/11 13:35:17;;;;;;;;;;;;;;;22.17;39.76;96293.50;10462852;28;1854;-61
2022/06/11 13:40:21;;;;;;;;;;;;;;;22.17;40.84;96290.06;10454901;28;2028;-61
2022/06/11 13:45:36;;;;;;;;;;;;;;;22.21;42.29;96291.91;10458942;28;1890;-59
2022/06/11 13:50:55;;;;;;;;;;;;;;;22.18;40.15;96292.44;10458764;28;1767;-62
2022/06/11 13:55:56;;;;;;;;;;;;;;;22.20;40.14;96284.22;10488088;28;1827;-63
2022/06/11 14:00:56;;;;;;;;;;;;;;;22.24;41.54;96278.13;10473047;28;1910;-60
2022/06/11 14:05:56;;;;;;;;;;;;;;;22.17;38.53;96277.66;10474856;28;1935;-59
2022/06/11 14:10:59;;;;;;;;;;;;;;;22.19;39.85;96285.31;10457890;28;1847;-63
2022/06/11 14:16:20;;;;;;;;;;;;;;;22.24;40.82;96279.97;10474927;28;1851;-61
2022/06/11 14:21:56;;;;;;;;;;;;;;;22.26;41.28;96273.38;10475132;28;1826;-60
2022/06/11 14:26:56;;;;;;;;;;;;;;;22.26;41.90;96270.72;10436757;28;1888;-62
2022/06/11 14:32:08;;;;;;;;;;;;;;;22.27;42.17;96269.69;10475071;28;1992;-63
2022/06/11 14:37:18;;;;;;;;;;;;;;;22.28;42.16;96267.81;10485080;28;1910;-61
2022/06/11 14:42:20;;;;;;;;;;;;;;;22.28;42.28;96270.44;10457492;28;2030;-63
2022/06/11 14:47:48;;;;;;;;;;;;;;;22.28;43.02;96273.09;10472544;28;1923;-63
2022/06/11 14:52:48;;;;;;;;;;;;;;;22.28;43.13;96271.25;10454147;28;1863;-60
2022/06/11 14:57:51;;;;;;;;;;;;;;;22.28;42.90;96268.59;10488178;28;1906;-62
2022/06/11 15:02:52;;;;;;;;;;;;;;;22.28;42.99;96271.25;10456078;28;1957;-63
2022/06/11 15:08:22;;;;;;;;;;;;;;;22.29;43.64;96269.41;10476659;28;1887;-62
2022/06/11 15:13:40;;;;;;;;;;;;;;;22.27;43.54;96258.31;10458568;28;1805;-62
2022/06/11 15:18:45;;;;;;;;;;;;;;;22.26;43.55;96270.72;10470123;28;1922;-61
2022/06/11 15:23:46;;;;;;;;;;;;;;;22.26;43.87;96262.81;10472735;28;1835;-62
2022/06/11 15:29:06;;;;;;;;;;;;;;;22.25;43.75;96263.88;10463084;28;1456;-61
2022/06/11 15:34:06;;;;;;;;;;;;;;;22.25;43.88;96266.53;10467172;28;1444;-62
2022/06/11 15:39:08;;;;;;;;;;;;;;;22.25;43.88;96261.25;10462597;28;1975;-65
2022/06/11 15:44:16;;;;;;;;;;;;;;;22.24;43.53;96254.38;10444745;28;1861;-64
2022/06/11 15:49:36;;;;;;;;;;;;;;;22.24;43.95;96253.56;10477952;28;1843;-62
2022/06/11 16:00:22;;;;;;;;;;;;;;;22.23;43.67;96249.38;10397834;28;1906;-63
2022/06/11 16:05:26;;;;;;;;;;;;;;;22.22;43.69;96248.56;10467558;28;1831;-61
2022/06/11 16:10:27;;;;;;;;;;;;;;;22.25;43.65;96247.25;10489112;28;1785;-61
2022/06/11 16:15:31;;;;;;;;;;;;;;;22.25;43.61;96253.31;10462184;28;1853;-62
2022/06/11 16:20:33;;;;;;;;;;;;;;;22.24;43.72;96251.72;10473996;28;1959;-62
2022/06/11 16:25:36;;;;;;;;;;;;;;;22.25;44.12;96248.03;10481133;28;1839;-59
2022/06/11 16:30:36;;;;;;;;;;;;;;;22.25;44.01;96245.41;10432658;28;1784;-62
2022/06/11 16:35:38;;;;;;;;;;;;;;;22.23;44.17;96247.53;10447689;28;1900;-63
2022/06/11 16:40:39;;;;;;;;;;;;;;;22.25;44.79;96245.41;10466728;28;1914;-62
2022/06/11 16:45:43;;;;;;;;;;;;;;;22.26;44.52;96246.16;10453828;28;1891;-63
2022/06/11 16:56:09;;;;;;;;;;;;;;;22.26;44.90;96252.25;10449326;28;1800;-58
2022/06/11 17:01:15;;;;;;;;;;;;;;;22.26;45.11;96252.25;10471177;28;1971;-58
2022/06/11 17:06:21;;;;;;;;;;;;;;;22.27;44.99;96258.31;10435552;28;1798;-59
2022/06/11 17:11:21;;;;;;;;;;;;;;;22.27;45.13;96261.75;10436014;28;1796;-58
2022/06/11 17:16:21;;;;;;;;;;;;;;;22.27;44.93;96272.31;10438093;28;1910;-62
2022/06/11 17:21:34;;;;;;;;;;;;;;;22.29;44.90;96266.75;10433211;28;1847;-62
2022/06/11 17:26:50;;;;;;;;;;;;;;;22.28;44.69;96268.59;10468995;28;1803;-61
2022/06/11 17:31:51;;;;;;;;;;;;;;;22.28;44.73;96275.72;10473164;28;1896;-62
2022/06/11 17:36:52;;;;;;;;;;;;;;;22.28;44.98;96273.88;10479603;28;1945;-62
2022/06/11 17:41:53;;;;;;;;;;;;;;;22.26;44.99;96270.72;10470774;28;2181;-62
2022/06/11 17:52:02;;;;;;;;;;;;;;;22.28;44.79;96281.81;10456110;28;1882;-62
2022/06/11 17:57:02;;;;;;;;;;;;;;;22.28;44.96;96281.00;10457614;28;1905;-62
2022/06/11 18:02:22;;;;;;;;;;;;;;;22.29;44.98;96286.06;10486343;28;1804;-61
2022/06/11 18:07:23;;;;;;;;;;;;;;;22.29;45.14;96283.41;10489346;28;1788;-61
2022/06/11 18:12:23;;;;;;;;;;;;;;;22.29;45.14;96283.41;10476799;28;1843;-62
2022/06/11 18:17:24;;;;;;;;;;;;;;;22.31;45.42;96289.22;10457540;28;1905;-57
2022/06/11 18:27:45;;;;;;;;;;;;;;;22.31;45.48;96285.78;10488220;28;1918;-59
2022/06/11 18:32:45;;;;;;;;;;;;;;;22.31;45.17;96286.56;10476096;28;1809;-63
2022/06/11 18:37:46;;;;;;;;;;;;;;;22.31;45.21;96288.41;10484925;28;1891;-61
2022/06/11 18:42:47;;;;;;;;;;;;;;;22.30;45.26;96290.25;10455530;28;1838;-63
2022/06/11 18:47:47;;;;;;;;;;;;;;;22.30;45.32;96295.53;10455182;28;1830;-63
2022/06/11 18:52:48;;;;;;;;;;;;;;;22.30;45.55;96295.53;10490999;28;2128;-60
2022/06/11 18:57:49;;;;;;;;;;;;;;;22.30;45.41;96300.81;10454773;28;1914;-63
2022/06/11 19:02:50;;;;;;;;;;;;;;;22.31;45.66;96298.97;10474392;28;2122;-61
2022/06/11 19:07:50;;;;;;;;;;;;;;;22.30;45.40;96294.75;10474477;28;1773;-62
2022/06/11 19:12:51;;;;;;;;;;;;;;;22.30;45.59;96306.09;10472520;28;1827;-60
2022/06/11 19:17:55;;;;;;;;;;;;;;;22.30;45.56;96300.81;10456302;28;2079;-61
2022/06/11 19:23:00;;;;;;;;;;;;;;;22.31;45.52;96302.41;10470710;28;1837;-62
2022/06/11 19:28:01;;;;;;;;;;;;;;;22.30;45.66;96303.47;10475006;28;2087;-62
2022/06/11 19:33:01;;;;;;;;;;;;;;;22.30;45.82;96305.31;10473494;28;1935;-62
2022/06/11 19:38:02;;;;;;;;;;;;;;;22.31;45.88;96312.97;10469715;28;1983;-63
2022/06/11 19:43:02;;;;;;;;;;;;;;;22.31;45.77;96312.97;10488348;28;1849;-62
2022/06/11 19:48:04;;;;;;;;;;;;;;;22.32;45.72;96322.47;10448320;28;1846;-60
2022/06/11 19:53:05;;;;;;;;;;;;;;;22.26;46.06;96317.47;10483030;28;1879;-62
2022/06/11 19:58:06;;;;;;;;;;;;;;;22.28;46.43;96325.91;10453755;28;1971;-62
2022/06/11 20:03:06;;;;;;;;;;;;;;;22.30;46.68;96321.94;10456508;28;1880;-62
2022/06/11 20:08:06;;;;;;;;;;;;;;;22.34;46.56;96324.84;10489381;28;1895;-62
2022/06/11 20:13:09;;;;;;;;;;;;;;;22.36;46.20;96325.38;10459532;28;1909;-63
2022/06/11 20:18:09;;;;;;;;;;;;;;;22.38;46.49;96331.19;10478483;28;1987;-61
2022/06/11 20:23:13;;;;;;;;;;;;;;;22.40;46.42;96324.53;10493800;28;1874;-63
2022/06/11 20:28:13;;;;;;;;;;;;;;;22.42;46.40;96329.56;10489163;28;1878;-62
2022/06/11 20:33:15;;;;;;;;;;;;;;;22.45;46.39;96324.53;10451346;28;1812;-62
2022/06/11 20:38:16;;;;;;;;;;;;;;;22.49;46.47;96330.06;10455730;28;1984;-62
2022/06/11 20:43:16;;;;;;;;;;;;;;;22.44;45.39;96330.09;10487519;28;1804;-59
2022/06/11 20:48:16;;;;;;;;;;;;;;;22.25;43.63;96329.91;10489700;28;1775;-60
2022/06/11 20:53:17;;;;;;;;;;;;;;;22.08;42.73;96329.44;10459574;28;1849;-61
2022/06/11 20:58:18;;;;;;;;;;;;;;;21.97;42.34;96335.03;10477432;28;1986;-61
2022/06/11 21:03:19;;;;;;;;;;;;;;;21.88;41.94;96332.13;10464081;28;1897;-61
2022/06/11 21:13:40;;;;;;;;;;;;;;;21.67;42.63;96327.91;10437191;28;2005;-61
2022/06/11 21:18:41;;;;;;;;;;;;;;;21.63;42.28;96326.88;10472703;28;1913;-61
2022/06/11 21:23:42;;;;;;;;;;;;;;;21.54;42.51;96328.44;10477109;28;1909;-61
2022/06/11 21:28:43;;;;;;;;;;;;;;;21.45;42.10;96319.50;10476193;28;1837;-58
2022/06/11 21:33:44;;;;;;;;;;;;;;;21.41;42.20;96326.38;10475858;28;1896;-60
2022/06/11 21:38:45;;;;;;;;;;;;;;;21.41;42.35;96329.00;10457438;28;1914;-60
2022/06/11 21:43:45;;;;;;;;;;;;;;;21.52;42.99;96328.72;10460320;28;1967;-63
2022/06/11 21:48:45;;;;;;;;;;;;;;;21.67;43.22;96326.06;10449431;28;1841;-63
2022/06/11 21:53:46;;;;;;;;;;;;;;;21.82;43.19;96341.88;10491459;28;1974;-62
2022/06/11 21:58:46;;;;;;;;;;;;;;;21.95;43.21;96334.50;10463176;28;1937;-62
2022/06/11 22:03:46;;;;;;;;;;;;;;;22.02;43.54;96329.72;10478226;28;1824;-63
2022/06/11 22:08:47;;;;;;;;;;;;;;;22.07;43.98;96327.06;10459407;28;1862;-59
2022/06/11 22:13:49;;;;;;;;;;;;;;;22.10;44.61;96321.22;10490249;28;1873;-62
2022/06/11 22:18:49;;;;;;;;;;;;;;;22.15;45.41;96329.94;10460591;28;1914;-61
2022/06/11 22:23:49;;;;;;;;;;;;;;;22.17;45.65;96325.19;10480811;28;1805;-61
2022/06/11 22:28:50;;;;;;;;;;;;;;;22.19;46.15;96328.34;10480975;28;1757;-62
2022/06/11 22:33:51;;;;;;;;;;;;;;;22.19;46.11;96324.91;10474359;28;1827;-62
2022/06/11 22:38:52;;;;;;;;;;;;;;;22.20;46.31;96334.41;10473813;28;1914;-63
2022/06/11 22:43:53;;;;;;;;;;;;;;;22.19;46.42;96325.72;10474080;28;1833;-62
2022/06/11 22:48:53;;;;;;;;;;;;;;;22.19;46.33;96325.72;10477339;28;1786;-62
2022/06/11 22:53:54;;;;;;;;;;;;;;;22.19;46.38;96323.06;10472881;28;1895;-62
2022/06/11 22:58:54;;;;;;;;;;;;;;;22.19;46.70;96324.91;10476647;28;1914;-61
2022/06/11 23:03:55;;;;;;;;;;;;;;;22.18;46.85;96323.31;10486370;28;1778;-62
2022/06/11 23:08:56;;;;;;;;;;;;;;;22.19;46.89;96319.63;10455216;28;1718;-62
2022/06/11 23:13:56;;;;;;;;;;;;;;;22.18;46.54;96318.84;10454376;28;1801;-62
2022/06/11 23:18:57;;;;;;;;;;;;;;;22.18;46.47;96323.31;10474139;28;1906;-62
2022/06/11 23:23:58;;;;;;;;;;;;;;;22.18;46.45;96318.03;10490912;28;1764;-60
2022/06/11 23:29:00;;;;;;;;;;;;;;;22.16;46.72;96310.38;10453763;28;1770;-63
2022/06/11 23:34:02;;;;;;;;;;;;;;;22.16;46.51;96320.94;10470190;28;1867;-61
2022/06/11 23:39:02;;;;;;;;;;;;;;;22.16;46.64;96314.88;10482973;28;1910;-62
2022/06/11 23:44:03;;;;;;;;;;;;;;;22.16;46.39;96318.31;10477824;28;1892;-61
2022/06/11 23:49:03;;;;;;;;;;;;;;;22.15;46.14;96311.47;10479915;28;2003;-62
2022/06/11 23:54:04;;;;;;;;;;;;;;;22.14;46.28;96312.50;10478261;28;1855;-61
2022/06/11 23:59:04;;;;;;;;;;;;;;;22.14;46.42;96317.78;10496851;28;1914;-61
